Time;durP1;ratioP1;P1;durP2;ratioP2;P2;SDS_P1;SDS_P2;PMS_P1;PMS_P2;Temp;Humidity;BMP_temperature;BMP_pressure;BME280_temperature;BME280_humidity;BME280_pressure;Samples;Min_cycle;Max_cycle;Signal;HPM_P1;HPM_P2
2021/08/01 07:17:54;;;;;;;1.5;1.3;;;;;;;15.49;87.08887;932.772;;;;
2021/08/01 07:20:24;;;;;;;3.8;2.4;;;;;;;15.35;88.08594;932.8041;;;;
2021/08/01 07:22:54;;;;;;;2.4;2.2;;;;;;;15.51;87.65625;932.8159;;;;
2021/08/01 07:25:19;;;;;;;2.4;2.2;;;;;;;15.35;87.51953;932.837;;;;
2021/08/01 07:27:50;;;;;;;4.6;2.4;;;;;;;15.43;88.84082;932.8183;;;;
2021/08/01 07:31:52;;;;;;;2.3;2.1;;;;;;;15.61;88.19434;932.7736;;;;
2021/08/01 07:34:17;;;;;;;2.6;2.2;;;;;;;15.52;88.4668;932.7908;;;;
2021/08/01 07:36:46;;;;;;;2.1;1.9;;;;;;;15.54;88.85156;932.6951;;;;
2021/08/01 07:39:11;;;;;;;2.5;2.3;;;;;;;15.62;88.1748;932.695;;;;
2021/08/01 07:41:41;;;;;;;2.2;2;;;;;;;15.78;88.14941;932.6389;;;;
2021/08/01 07:44:13;;;;;;;2.7;2.2;;;;;;;16.03;86.07324;932.6376;;;;
2021/08/01 07:46:42;;;;;;;2.5;2.3;;;;;;;15.96;87.14551;932.6194;;;;
2021/08/01 07:49:07;;;;;;;1.7;1.6;;;;;;;16.12;83.7666;932.6445;;;;
2021/08/01 07:51:33;;;;;;;4.6;2.3;;;;;;;16.05;85.52148;932.6412;;;;
2021/08/01 07:53:58;;;;;;;2.8;2;;;;;;;16.03;85.99219;932.6569;;;;
2021/08/01 07:56:23;;;;;;;3;1.8;;;;;;;;;;;;;
2021/08/01 07:58:48;;;;;;;2.3;1.8;;;;;;;;;;;;;
2021/08/01 08:01:14;;;;;;;5.7;5.1;;;;;;;;;;;;;
2021/08/01 08:03:42;;;;;;;2.7;2.2;;;;;;;;;;;;;
2021/08/01 08:06:07;;;;;;;1.9;1.8;;;;;;;;;;;;;
2021/08/01 08:08:31;;;;;;;2.5;1.8;;;;;;;;;;;;;
2021/08/01 08:10:58;;;;;;;2;1.6;;;;;;;;;;;;;
2021/08/01 08:13:23;;;;;;;2.2;1.6;;;;;;;;;;;;;
2021/08/01 08:15:50;;;;;;;2;1.8;;;;;;;;;;;;;
2021/08/01 08:18:15;;;;;;;1.8;1.4;;;;;;;;;;;;;
2021/08/01 08:20:40;;;;;;;1.6;1.5;;;;;;;;;;;;;
2021/08/01 08:23:05;;;;;;;1.8;1.4;;;;;;;;;;;;;
2021/08/01 08:25:30;;;;;;;2.1;1.7;;;;;;;;;;;;;
2021/08/01 08:27:55;;;;;;;2;1.4;;;;;;;;;;;;;
2021/08/01 08:30:23;;;;;;;1.5;1.4;;;;;;;;;;;;;
2021/08/01 08:32:48;;;;;;;2.2;1.5;;;;;;;;;;;;;
2021/08/01 08:35:13;;;;;;;1.7;1.6;;;;;;;;;;;;;
2021/08/01 08:37:38;;;;;;;2.1;1.3;;;;;;;;;;;;;
2021/08/01 08:40:04;;;;;;;1.4;1.3;;;;;;;;;;;;;
2021/08/01 08:42:29;;;;;;;1.5;1.4;;;;;;;;;;;;;
2021/08/01 08:44:54;;;;;;;2;1.8;;;;;;;;;;;;;
2021/08/01 08:47:20;;;;;;;1.9;1.7;;;;;;;;;;;;;
2021/08/01 08:49:46;;;;;;;2.3;1.7;;;;;;;;;;;;;
2021/08/01 08:52:11;;;;;;;2.2;1.9;;;;;;;;;;;;;
2021/08/01 08:54:38;;;;;;;2.1;1.7;;;;;;;;;;;;;
2021/08/01 08:57:02;;;;;;;1.7;1.6;;;;;;;;;;;;;
2021/08/01 08:59:29;;;;;;;1.5;1.4;;;;;;;;;;;;;
2021/08/01 09:01:54;;;;;;;1.4;1.3;;;;;;;;;;;;;
2021/08/01 09:04:20;;;;;;;1.3;1.2;;;;;;;;;;;;;
2021/08/01 09:06:45;;;;;;;1.6;1.4;;;;;;;;;;;;;
2021/08/01 09:09:13;;;;;;;1.5;1.4;;;;;;;;;;;;;
2021/08/01 09:11:38;;;;;;;1.7;1.6;;;;;;;;;;;;;
2021/08/01 09:14:04;;;;;;;1.7;1.3;;;;;;;;;;;;;
2021/08/01 09:16:28;;;;;;;1.5;1.4;;;;;;;;;;;;;
2021/08/01 09:18:53;;;;;;;1.3;1.2;;;;;;;;;;;;;
2021/08/01 09:21:18;;;;;;;1.2;1.1;;;;;;;;;;;;;
2021/08/01 09:23:44;;;;;;;1;0.9;;;;;;;;;;;;;
2021/08/01 09:26:09;;;;;;;1;1;;;;;;;;;;;;;
2021/08/01 09:28:36;;;;;;;0.7;0.7;;;;;;;;;;;;;
2021/08/01 09:31:01;;;;;;;1.4;0.9;;;;;;;;;;;;;
2021/08/01 09:33:26;;;;;;;1.2;0.9;;;;;;;;;;;;;
2021/08/01 09:35:51;;;;;;;0.9;0.8;;;;;;;;;;;;;
2021/08/01 09:38:20;;;;;;;1.2;1.1;;;;;;;;;;;;;
2021/08/01 09:40:47;;;;;;;1;0.9;;;;;;;;;;;;;
2021/08/01 09:43:11;;;;;;;0.9;0.9;;;;;;;;;;;;;
2021/08/01 09:45:38;;;;;;;1.7;0.9;;;;;;;;;;;;;
2021/08/01 09:48:03;;;;;;;0.8;0.8;;;;;;;;;;;;;
2021/08/01 09:50:29;;;;;;;2.1;1.9;;;;;;;;;;;;;
2021/08/01 09:52:54;;;;;;;1.1;1;;;;;;;;;;;;;
2021/08/01 09:55:19;;;;;;;1.2;1.1;;;;;;;;;;;;;
2021/08/01 09:57:44;;;;;;;1.1;1;;;;;;;;;;;;;
2021/08/01 10:00:09;;;;;;;0.8;0.8;;;;;;;;;;;;;
2021/08/01 10:02:36;;;;;;;1.2;0.8;;;;;;;;;;;;;
2021/08/01 10:05:01;;;;;;;0.7;0.7;;;;;;;;;;;;;
2021/08/01 10:07:26;;;;;;;0.9;0.9;;;;;;;;;;;;;
2021/08/01 10:09:51;;;;;;;0.9;0.9;;;;;;;;;;;;;
2021/08/01 10:12:19;;;;;;;1.1;1;;;;;;;;;;;;;
2021/08/01 10:14:44;;;;;;;1.1;1;;;;;;;;;;;;;
2021/08/01 10:17:11;;;;;;;0.7;0.7;;;;;;;;;;;;;
2021/08/01 10:19:36;;;;;;;0.7;0.7;;;;;;;;;;;;;
2021/08/01 10:22:03;;;;;;;0.8;0.8;;;;;;;;;;;;;
2021/08/01 10:24:27;;;;;;;1.3;0.9;;;;;;;;;;;;;
2021/08/01 10:26:53;;;;;;;0.8;0.8;;;;;;;;;;;;;
2021/08/01 10:29:18;;;;;;;0.7;0.7;;;;;;;;;;;;;
2021/08/01 10:31:45;;;;;;;0.6;0.6;;;;;;;;;;;;;
2021/08/01 10:34:10;;;;;;;0.7;0.7;;;;;;;;;;;;;
2021/08/01 10:36:35;;;;;;;0.9;0.7;;;;;;;;;;;;;
2021/08/01 10:39:01;;;;;;;0.6;0.6;;;;;;;;;;;;;
2021/08/01 10:41:26;;;;;;;0.9;0.6;;;;;;;;;;;;;
2021/08/01 10:43:52;;;;;;;0.6;0.6;;;;;;;;;;;;;
2021/08/01 10:46:18;;;;;;;1;0.7;;;;;;;;;;;;;
2021/08/01 10:48:43;;;;;;;1.5;0.9;;;;;;;;;;;;;
2021/08/01 10:51:08;;;;;;;0.8;0.8;;;;;;;;;;;;;
2021/08/01 10:53:34;;;;;;;0.9;0.9;;;;;;;;;;;;;
2021/08/01 10:55:59;;;;;;;1.2;1.1;;;;;;;;;;;;;
2021/08/01 10:58:24;;;;;;;0.8;0.8;;;;;;;;;;;;;
2021/08/01 11:00:49;;;;;;;1.1;1;;;;;;;;;;;;;
2021/08/01 11:03:16;;;;;;;0.7;0.7;;;;;;;;;;;;;
2021/08/01 11:05:41;;;;;;;1;1;;;;;;;;;;;;;
2021/08/01 11:08:07;;;;;;;0.7;0.7;;;;;;;;;;;;;
2021/08/01 11:10:32;;;;;;;1.3;0.9;;;;;;;;;;;;;
2021/08/01 11:12:59;;;;;;;1.6;1.2;;;;;;;;;;;;;
2021/08/01 11:15:24;;;;;;;1.2;1.1;;;;;;;;;;;;;
2021/08/01 11:17:51;;;;;;;1.3;1;;;;;;;;;;;;;
2021/08/01 11:20:14;;;;;;;1.2;1.1;;;;;;;;;;;;;
2021/08/01 11:22:40;;;;;;;1.3;1.2;;;;;;;;;;;;;
2021/08/01 11:25:05;;;;;;;1;1;;;;;;;;;;;;;
2021/08/01 11:27:30;;;;;;;1.3;1.2;;;;;;;;;;;;;
2021/08/01 11:29:55;;;;;;;0.9;0.9;;;;;;;;;;;;;
2021/08/01 11:32:23;;;;;;;1.1;1;;;;;;;;;;;;;
2021/08/01 11:34:50;;;;;;;1.4;1.2;;;;;;;;;;;;;
2021/08/01 11:37:16;;;;;;;1;1;;;;;;;;;;;;;
2021/08/01 11:39:41;;;;;;;1.7;1;;;;;;;;;;;;;
2021/08/01 11:42:06;;;;;;;1.3;1;;;;;;;;;;;;;
2021/08/01 11:44:31;;;;;;;1.1;1;;;;;;;;;;;;;
2021/08/01 11:46:57;;;;;;;1.9;0.6;;;;;;;;;;;;;
2021/08/01 11:49:21;;;;;;;1.3;1;;;;;;;;;;;;;
2021/08/01 11:51:46;;;;;;;0.6;0.6;;;;;;;;;;;;;
2021/08/01 11:54:12;;;;;;;0.7;0.7;;;;;;;;;;;;;
2021/08/01 11:56:37;;;;;;;0.7;0.7;;;;;;;;;;;;;
2021/08/01 11:59:03;;;;;;;0.8;0.8;;;;;;;;;;;;;
2021/08/01 12:01:28;;;;;;;0.7;0.7;;;;;;;;;;;;;
2021/08/01 12:03:54;;;;;;;1.7;0.9;;;;;;;;;;;;;
2021/08/01 12:06:19;;;;;;;0.7;0.7;;;;;;;;;;;;;
2021/08/01 12:08:45;;;;;;;1.1;0.9;;;;;;;;;;;;;
2021/08/01 12:11:11;;;;;;;1.3;0.9;;;;;;;;;;;;;
2021/08/01 12:13:38;;;;;;;1.3;0.8;;;;;;;;;;;;;
2021/08/01 12:16:03;;;;;;;1.2;0.8;;;;;;;;;;;;;
2021/08/01 12:18:30;;;;;;;0.9;0.8;;;;;;;;;;;;;
2021/08/01 12:20:55;;;;;;;1.3;1;;;;;;;;;;;;;
2021/08/01 12:23:22;;;;;;;0.8;0.8;;;;;;;;;;;;;
2021/08/01 12:25:47;;;;;;;0.9;0.9;;;;;;;;;;;;;
2021/08/01 12:28:12;;;;;;;0.7;0.7;;;;;;;;;;;;;
2021/08/01 12:30:38;;;;;;;0.9;0.9;;;;;;;;;;;;;
2021/08/01 12:33:04;;;;;;;1.2;1.1;;;;;;;;;;;;;
2021/08/01 12:35:29;;;;;;;1.1;1;;;;;;;;;;;;;
2021/08/01 12:37:59;;;;;;;0.8;0.7;;;;;;;;;;;;;
2021/08/01 12:40:19;;;;;;;0.8;0.8;;;;;;;;;;;;;
2021/08/01 12:42:47;;;;;;;0.7;0.7;;;;;;;;;;;;;
2021/08/01 12:45:12;;;;;;;1.2;0.9;;;;;;;;;;;;;
2021/08/01 12:47:37;;;;;;;0.8;0.8;;;;;;;;;;;;;
2021/08/01 12:50:02;;;;;;;0.9;0.9;;;;;;;;;;;;;
2021/08/01 12:52:29;;;;;;;1.4;1.1;;;;;;;;;;;;;
2021/08/01 12:54:54;;;;;;;0.9;0.9;;;;;;;;;;;;;
2021/08/01 12:57:20;;;;;;;1.1;1;;;;;;;;;;;;;
2021/08/01 12:59:45;;;;;;;1.1;0.9;;;;;;;;;;;;;
2021/08/01 13:02:12;;;;;;;1.3;1;;;;;;;;;;;;;
2021/08/01 13:04:36;;;;;;;1.5;1.1;;;;;;;;;;;;;
2021/08/01 13:07:02;;;;;;;1.3;1.1;;;;;;;;;;;;;
2021/08/01 13:09:27;;;;;;;1.8;1.4;;;;;;;;;;;;;
2021/08/01 13:11:52;;;;;;;1.5;1.4;;;;;;;;;;;;;
2021/08/01 13:14:17;;;;;;;1.6;1.4;;;;;;;;;;;;;
2021/08/01 13:16:42;;;;;;;3.4;1.4;;;;;;;;;;;;;
2021/08/01 13:19:07;;;;;;;1.5;1.4;;;;;;;;;;;;;
2021/08/01 13:21:32;;;;;;;1.5;1.4;;;;;;;;;;;;;
2021/08/01 13:23:58;;;;;;;1.1;1;;;;;;;;;;;;;
2021/08/01 13:26:23;;;;;;;1.4;1.2;;;;;;;;;;;;;
2021/08/01 13:28:48;;;;;;;1.4;1;;;;;;;;;;;;;
2021/08/01 13:31:15;;;;;;;2.1;1.3;;;;;;;;;;;;;
2021/08/01 13:33:40;;;;;;;2.1;1.6;;;;;;;;;;;;;
2021/08/01 13:36:05;;;;;;;1.5;1.3;;;;;;;;;;;;;
2021/08/01 13:38:30;;;;;;;1.3;1.2;;;;;;;;;;;;;
2021/08/01 13:40:55;;;;;;;1.7;1.5;;;;;;;;;;;;;
2021/08/01 13:43:22;;;;;;;1.6;1.5;;;;;;;;;;;;;
2021/08/01 13:45:47;;;;;;;1.4;1.3;;;;;;;;;;;;;
2021/08/01 13:48:12;;;;;;;1.3;1.2;;;;;;;;;;;;;
2021/08/01 13:50:38;;;;;;;1.9;1.4;;;;;;;;;;;;;
2021/08/01 13:53:03;;;;;;;1.4;1.3;;;;;;;;;;;;;
2021/08/01 13:55:29;;;;;;;1.3;1.2;;;;;;;;;;;;;
2021/08/01 13:57:54;;;;;;;1.4;1.3;;;;;;;;;;;;;
2021/08/01 14:00:21;;;;;;;1.2;1;;;;;;;;;;;;;
2021/08/01 14:02:46;;;;;;;1.2;1.1;;;;;;;;;;;;;
2021/08/01 14:05:11;;;;;;;1.3;1.2;;;;;;;;;;;;;
2021/08/01 14:07:36;;;;;;;1.3;1.2;;;;;;;;;;;;;
2021/08/01 14:10:01;;;;;;;1.3;1.2;;;;;;;;;;;;;
2021/08/01 14:12:26;;;;;;;1.2;1.1;;;;;;;;;;;;;
2021/08/01 14:14:51;;;;;;;2;1.4;;;;;;;;;;;;;
2021/08/01 14:17:16;;;;;;;1.4;1.3;;;;;;;;;;;;;
2021/08/01 14:19:43;;;;;;;1.3;1.2;;;;;;;;;;;;;
2021/08/01 14:22:08;;;;;;;1.6;1.5;;;;;;;;;;;;;
2021/08/01 14:24:34;;;;;;;1.6;1.5;;;;;;;;;;;;;
2021/08/01 14:26:59;;;;;;;1.5;1.4;;;;;;;;;;;;;
2021/08/01 14:29:25;;;;;;;2.3;1.6;;;;;;;;;;;;;
2021/08/01 14:31:50;;;;;;;1.8;1.6;;;;;;;;;;;;;
2021/08/01 14:34:18;;;;;;;1.9;1.3;;;;;;;;;;;;;
2021/08/01 14:36:43;;;;;;;1.8;1.3;;;;;;;;;;;;;
2021/08/01 14:39:11;;;;;;;3.5;2.2;;;;;;;;;;;;;
2021/08/01 14:41:33;;;;;;;1.6;1.5;;;;;;;;;;;;;
2021/08/01 14:43:59;;;;;;;1.2;1.1;;;;;;;;;;;;;
2021/08/01 14:46:24;;;;;;;1.4;1.3;;;;;;;;;;;;;
2021/08/01 14:48:57;;;;;;;1.6;1.3;;;;;;;;;;;;;
2021/08/01 14:52:58;;;;;;;2.2;1.5;;;;;;;;;;;;;
2021/08/01 14:53:41;;;;;;;1.4;1.3;;;;;;;;;;;;;
2021/08/01 14:56:06;;;;;;;1.4;1.3;;;;;;;;;;;;;
2021/08/01 14:58:32;;;;;;;2;1.5;;;;;;;;;;;;;
2021/08/01 15:00:57;;;;;;;4.4;2;;;;;;;;;;;;;
2021/08/01 15:03:22;;;;;;;2.6;1.7;;;;;;;;;;;;;
2021/08/01 15:05:47;;;;;;;1.8;1.7;;;;;;;;;;;;;
2021/08/01 15:08:12;;;;;;;2.5;1.6;;;;;;;;;;;;;
2021/08/01 15:10:37;;;;;;;1.3;1.2;;;;;;;;;;;;;
2021/08/01 15:13:04;;;;;;;1.5;1.4;;;;;;;;;;;;;
2021/08/01 15:15:31;;;;;;;1.3;1.2;;;;;;;;;;;;;
2021/08/01 15:17:54;;;;;;;2.2;1.3;;;;;;;;;;;;;
2021/08/01 15:20:20;;;;;;;2.4;1.8;;;;;;;;;;;;;
2021/08/01 15:22:45;;;;;;;1.7;1.5;;;;;;;;;;;;;
2021/08/01 15:25:11;;;;;;;2.1;1.2;;;;;;;;;;;;;
2021/08/01 15:27:35;;;;;;;1.3;1.2;;;;;;;;;;;;;
2021/08/01 15:30:02;;;;;;;1.8;1.2;;;;;;;;;;;;;
2021/08/01 15:32:27;;;;;;;1.5;1.4;;;;;;;;;;;;;
2021/08/01 15:34:52;;;;;;;1.7;1.5;;;;;;;;;;;;;
2021/08/01 15:37:17;;;;;;;2.5;1.5;;;;;;;;;;;;;
2021/08/01 15:39:44;;;;;;;1.7;1.5;;;;;;;;;;;;;
2021/08/01 15:42:09;;;;;;;1.6;1.5;;;;;;;;;;;;;
2021/08/01 15:44:35;;;;;;;1.5;1.4;;;;;;;;;;;;;
2021/08/01 15:47:00;;;;;;;1.7;1.6;;;;;;;;;;;;;
2021/08/01 15:49:26;;;;;;;1.7;1.6;;;;;;;;;;;;;
2021/08/01 15:51:51;;;;;;;1.6;1.5;;;;;;;;;;;;;
2021/08/01 15:54:17;;;;;;;1.8;1.5;;;;;;;;;;;;;
2021/08/01 15:56:42;;;;;;;1.8;1.6;;;;;;;;;;;;;
2021/08/01 15:59:08;;;;;;;1.8;1.6;;;;;;;;;;;;;
2021/08/01 16:01:33;;;;;;;1.6;1.5;;;;;;;;;;;;;
2021/08/01 16:03:59;;;;;;;1.5;1.4;;;;;;;;;;;;;
2021/08/01 16:06:24;;;;;;;2;1.7;;;;;;;;;;;;;
2021/08/01 16:08:50;;;;;;;2.1;1.8;;;;;;;;;;;;;
2021/08/01 16:11:15;;;;;;;2;1.7;;;;;;;;;;;;;
2021/08/01 16:13:42;;;;;;;2.7;1.8;;;;;;;;;;;;;
2021/08/01 16:16:07;;;;;;;1.9;1.6;;;;;;;;;;;;;
2021/08/01 16:18:32;;;;;;;2.2;1.8;;;;;;;;;;;;;
2021/08/01 16:20:57;;;;;;;1.8;1.7;;;;;;;;;;;;;
2021/08/01 16:23:22;;;;;;;2.6;2;;;;;;;;;;;;;
2021/08/01 16:25:49;;;;;;;2.3;2;;;;;;;;;;;;;
2021/08/01 16:28:14;;;;;;;2.1;1.9;;;;;;;;;;;;;
2021/08/01 16:30:40;;;;;;;3.5;2.2;;;;;;;;;;;;;
2021/08/01 16:33:05;;;;;;;2.1;1.9;;;;;;;;;;;;;
2021/08/01 16:35:30;;;;;;;2.6;2.2;;;;;;;;;;;;;
2021/08/01 16:37:55;;;;;;;3.3;2.7;;;;;;;;;;;;;
2021/08/01 16:40:22;;;;;;;3.5;2.8;;;;;;;;;;;;;
2021/08/01 16:42:47;;;;;;;3;2.5;;;;;;;;;;;;;
2021/08/01 16:45:16;;;;;;;3.3;2.7;;;;;;;;;;;;;
2021/08/01 16:47:43;;;;;;;3;2.4;;;;;;;;;;;;;
2021/08/01 16:50:09;;;;;;;3.1;2.7;;;;;;;;;;;;;
2021/08/01 16:52:33;;;;;;;3;2.8;;;;;;;;;;;;;
2021/08/01 16:54:59;;;;;;;3.8;2.8;;;;;;;;;;;;;
2021/08/01 16:57:23;;;;;;;2.8;2.5;;;;;;;;;;;;;
2021/08/01 16:59:49;;;;;;;2.5;2.3;;;;;;;;;;;;;
2021/08/01 17:02:14;;;;;;;2.8;2.4;;;;;;;;;;;;;
2021/08/01 17:04:40;;;;;;;2.4;2.2;;;;;;;;;;;;;
2021/08/01 17:07:05;;;;;;;2.7;2;;;;;;;;;;;;;
2021/08/01 17:09:31;;;;;;;2.8;2;;;;;;;;;;;;;
2021/08/01 17:11:56;;;;;;;3;2.7;;;;;;;;;;;;;
2021/08/01 17:14:23;;;;;;;2.6;2.4;;;;;;;;;;;;;
2021/08/01 17:16:48;;;;;;;3.8;2.3;;;;;;;;;;;;;
2021/08/01 17:19:14;;;;;;;3.2;2.4;;;;;;;;;;;;;
2021/08/01 17:21:39;;;;;;;2.8;2.3;;;;;;;;;;;;;
2021/08/01 17:24:05;;;;;;;4;3;;;;;;;;;;;;;
2021/08/01 17:26:30;;;;;;;3.3;2.4;;;;;;;;;;;;;
2021/08/01 17:28:58;;;;;;;2.4;2.2;;;;;;;;;;;;;
2021/08/01 17:31:23;;;;;;;3;2.4;;;;;;;;;;;;;
2021/08/01 17:33:48;;;;;;;3.5;2.3;;;;;;;;;;;;;
2021/08/01 17:36:13;;;;;;;2.4;2.2;;;;;;;;;;;;;
2021/08/01 17:38:39;;;;;;;2.7;2;;;;;;;;;;;;;
2021/08/01 17:41:04;;;;;;;3.4;2.5;;;;;;;;;;;;;
2021/08/01 17:43:32;;;;;;;5.5;2.3;;;;;;;;;;;;;
2021/08/01 17:45:57;;;;;;;4;2.6;;;;;;;;;;;;;
2021/08/01 17:48:23;;;;;;;3.7;3.1;;;;;;;;;;;;;
2021/08/01 17:50:48;;;;;;;5.3;3.4;;;;;;;;;;;;;
2021/08/01 17:53:13;;;;;;;5.9;3.2;;;;;;;;;;;;;
2021/08/01 17:55:38;;;;;;;2.9;2.1;;;;;;;;;;;;;
2021/08/01 17:58:05;;;;;;;2.9;1.8;;;;;;;;;;;;;
2021/08/01 18:00:31;;;;;;;1.5;1.4;;;;;;;;;;;;;
2021/08/01 18:02:59;;;;;;;2.1;1.8;;;;;;;;;;;;;
2021/08/01 18:05:22;;;;;;;1.6;1.5;;;;;;;;;;;;;
2021/08/01 18:07:48;;;;;;;2.9;1.7;;;;;;;;;;;;;
2021/08/01 18:10:13;;;;;;;2.4;1.7;;;;;;;;;;;;;
2021/08/01 18:12:39;;;;;;;2.9;2.1;;;;;;;;;;;;;
2021/08/01 18:15:06;;;;;;;4.4;2.4;;;;;;;;;;;;;
2021/08/01 18:17:31;;;;;;;2.3;1.8;;;;;;;;;;;;;
2021/08/01 18:19:57;;;;;;;2.7;2;;;;;;;;;;;;;
2021/08/01 18:22:22;;;;;;;2.1;1.9;;;;;;;;;;;;;
2021/08/01 18:24:47;;;;;;;2.7;1.7;;;;;;;;;;;;;
2021/08/01 18:27:12;;;;;;;4.3;2.1;;;;;;;;;;;;;
2021/08/01 18:29:38;;;;;;;3.4;1.6;;;;;;;;;;;;;
2021/08/01 18:32:03;;;;;;;2.6;1.9;;;;;;;;;;;;;
2021/08/01 18:34:29;;;;;;;2.3;1.7;;;;;;;;;;;;;
2021/08/01 18:36:54;;;;;;;1.8;1.7;;;;;;;;;;;;;
2021/08/01 18:39:21;;;;;;;2.1;1.9;;;;;;;;;;;;;
2021/08/01 18:41:46;;;;;;;3.4;1.8;;;;;;;;;;;;;
2021/08/01 18:44:12;;;;;;;2;1.7;;;;;;;;;;;;;
2021/08/01 18:46:38;;;;;;;1.7;1.6;;;;;;;;;;;;;
2021/08/01 18:49:04;;;;;;;2.7;1.9;;;;;;;;;;;;;
2021/08/01 18:51:29;;;;;;;3.2;2.2;;;;;;;;;;;;;
2021/08/01 18:53:54;;;;;;;2.4;1.9;;;;;;;;;;;;;
2021/08/01 18:56:19;;;;;;;2.8;1.9;;;;;;;;;;;;;
2021/08/01 18:58:45;;;;;;;2.2;1.9;;;;;;;;;;;;;
2021/08/01 19:01:10;;;;;;;2.8;1.7;;;;;;;;;;;;;
2021/08/01 19:03:36;;;;;;;2;1.8;;;;;;;;;;;;;
2021/08/01 19:06:01;;;;;;;2.3;1.9;;;;;;;;;;;;;
2021/08/01 19:08:29;;;;;;;4.6;2;;;;;;;;;;;;;
2021/08/01 19:10:54;;;;;;;2.7;2;;;;;;;;;;;;;
2021/08/01 19:13:19;;;;;;;3.7;2.6;;;;;;;;;;;;;
2021/08/01 19:15:44;;;;;;;4.2;2;;;;;;;;;;;;;
2021/08/01 19:18:11;;;;;;;4.5;1.9;;;;;;;;;;;;;
2021/08/01 19:20:36;;;;;;;2.1;1.9;;;;;;;;;;;;;
2021/08/01 19:25:51;;;;;;;4.4;3.1;;;;;;;;;;;;;
2021/08/01 19:28:16;;;;;;;2.8;2.3;;;;;;;;;;;;;
2021/08/01 19:30:41;;;;;;;5.3;3.1;;;;;;;;;;;;;
2021/08/01 19:33:07;;;;;;;2.9;2;;;;;;;;;;;;;
2021/08/01 19:35:32;;;;;;;4.3;1.7;;;;;;;;;;;;;
2021/08/01 19:37:59;;;;;;;2.3;1.7;;;;;;;;;;;;;
2021/08/01 19:40:24;;;;;;;2.8;1.9;;;;;;;;;;;;;
2021/08/01 19:42:50;;;;;;;2.4;2.1;;;;;;;;;;;;;
2021/08/01 19:45:19;;;;;;;3;1.6;;;;;;;;;;;;;
2021/08/01 19:47:40;;;;;;;2.6;1.8;;;;;;;;;;;;;
2021/08/01 19:50:08;;;;;;;2.2;1.6;;;;;;;;;;;;;
2021/08/01 19:52:36;;;;;;;3.6;2;;;;;;;;;;;;;
2021/08/01 19:55:02;;;;;;;4.5;2.2;;;;;;;;;;;;;
2021/08/01 19:57:27;;;;;;;3.1;1.9;;;;;;;;;;;;;
2021/08/01 19:59:52;;;;;;;3.5;1.9;;;;;;;;;;;;;
2021/08/01 20:02:17;;;;;;;4.7;2.6;;;;;;;;;;;;;
2021/08/01 20:04:42;;;;;;;4.9;2.2;;;;;;;;;;;;;
2021/08/01 20:07:08;;;;;;;4.1;2.7;;;;;;;;;;;;;
2021/08/01 20:09:33;;;;;;;7.5;4.6;;;;;;;;;;;;;
2021/08/01 20:11:58;;;;;;;10.6;5.3;;;;;;;;;;;;;
2021/08/01 20:14:23;;;;;;;12.2;7.1;;;;;;;;;;;;;
2021/08/01 20:16:48;;;;;;;7.9;5.5;;;;;;;;;;;;;
2021/08/01 20:19:15;;;;;;;7.3;4.2;;;;;;;;;;;;;
2021/08/01 20:21:41;;;;;;;5.4;3;;;;;;;;;;;;;
2021/08/01 20:24:07;;;;;;;3.8;2.7;;;;;;;;;;;;;
2021/08/01 20:26:32;;;;;;;3.3;2.6;;;;;;;;;;;;;
2021/08/01 20:28:58;;;;;;;3.3;2.8;;;;;;;;;;;;;
2021/08/01 20:31:23;;;;;;;5.6;3.8;;;;;;;;;;;;;
2021/08/01 20:33:49;;;;;;;5.7;2.6;;;;;;;;;;;;;
2021/08/01 20:36:14;;;;;;;2.5;2.3;;;;;;;;;;;;;
2021/08/01 20:38:40;;;;;;;4;2.7;;;;;;;;;;;;;
2021/08/01 20:41:05;;;;;;;3.6;2.7;;;;;;;;;;;;;
2021/08/01 20:43:31;;;;;;;4.7;2.4;;;;;;;;;;;;;
2021/08/01 20:45:56;;;;;;;2.3;2.1;;;;;;;;;;;;;
2021/08/01 20:48:24;;;;;;;4.3;2.5;;;;;;;;;;;;;
2021/08/01 20:50:49;;;;;;;3.5;2.7;;;;;;;;;;;;;
2021/08/01 20:53:19;;;;;;;3.6;2.5;;;;;;;;;;;;;
2021/08/01 20:55:40;;;;;;;3;2.7;;;;;;;;;;;;;
2021/08/01 20:58:05;;;;;;;4.4;2.9;;;;;;;;;;;;;
2021/08/01 21:00:30;;;;;;;4.1;2.3;;;;;;;;;;;;;
2021/08/01 21:02:55;;;;;;;3.3;2.3;;;;;;;;;;;;;
2021/08/01 21:05:20;;;;;;;3.1;2.5;;;;;;;;;;;;;
2021/08/01 21:08:08;;;;;;;3.6;2.2;;;;;;;;;;;;;
2021/08/01 21:10:33;;;;;;;2.9;2.3;;;;;;;;;;;;;
2021/08/01 21:12:58;;;;;;;2.6;2.4;;;;;;;;;;;;;
2021/08/01 21:15:24;;;;;;;3.6;2.2;;;;;;;;;;;;;
2021/08/01 21:17:49;;;;;;;4.5;2.6;;;;;;;;;;;;;
2021/08/01 21:20:16;;;;;;;3.1;2.1;;;;;;;;;;;;;
2021/08/01 21:22:41;;;;;;;2.3;2.1;;;;;;;;;;;;;
2021/08/01 21:25:09;;;;;;;4;2.3;;;;;;;;;;;;;
2021/08/01 21:27:38;;;;;;;4.2;2.3;;;;;;;;;;;;;
2021/08/01 21:30:03;;;;;;;3.1;2.2;;;;;;;;;;;;;
2021/08/01 21:32:28;;;;;;;2.4;2.2;;;;;;;;;;;;;
2021/08/01 21:34:53;;;;;;;2.3;2.1;;;;;;;;;;;;;
2021/08/01 21:37:19;;;;;;;3;2.1;;;;;;;;;;;;;
2021/08/01 21:39:45;;;;;;;3;2.3;;;;;;;;;;;;;
2021/08/01 21:42:11;;;;;;;4;2.5;;;;;;;;;;;;;
2021/08/01 21:44:36;;;;;;;3;2.4;;;;;;;;;;;;;
2021/08/01 21:47:03;;;;;;;2.8;2.6;;;;;;;;;;;;;
2021/08/01 21:49:28;;;;;;;3.1;2.3;;;;;;;;;;;;;
2021/08/01 21:51:54;;;;;;;3.3;2.2;;;;;;;;;;;;;
2021/08/01 21:54:20;;;;;;;3.6;2.1;;;;;;;;;;;;;
2021/08/01 21:56:45;;;;;;;2.8;1.8;;;;;;;;;;;;;
2021/08/01 21:59:11;;;;;;;4.3;2.2;;;;;;;;;;;;;
2021/08/01 22:01:36;;;;;;;3.7;2.2;;;;;;;;;;;;;
2021/08/01 22:04:02;;;;;;;2.8;2.2;;;;;;;;;;;;;
2021/08/01 22:06:27;;;;;;;3.3;1.9;;;;;;;;;;;;;
2021/08/01 22:08:53;;;;;;;1.9;1.7;;;;;;;;;;;;;
2021/08/01 22:11:18;;;;;;;2.1;1.9;;;;;;;;;;;;;
2021/08/01 22:13:44;;;;;;;3.6;2.1;;;;;;;;;;;;;
2021/08/01 22:16:08;;;;;;;4.9;2.2;;;;;;;;;;;;;
2021/08/01 22:18:34;;;;;;;4.3;2.1;;;;;;;;;;;;;
2021/08/01 22:20:59;;;;;;;2.2;2;;;;;;;;;;;;;
2021/08/01 22:23:26;;;;;;;2.3;1.9;;;;;;;;;;;;;
2021/08/01 22:25:52;;;;;;;3.5;2.1;;;;;;;;;;;;;
2021/08/01 22:28:17;;;;;;;4.1;2.3;;;;;;;;;;;;;
2021/08/01 22:30:43;;;;;;;2.3;2.1;;;;;;;;;;;;;
2021/08/01 22:33:08;;;;;;;3.7;2.2;;;;;;;;;;;;;
2021/08/01 22:35:34;;;;;;;2.4;2.1;;;;;;;;;;;;;
2021/08/01 22:37:59;;;;;;;4.3;1.9;;;;;;;;;;;;;
2021/08/01 22:40:25;;;;;;;2.3;1.9;;;;;;;;;;;;;
2021/08/01 22:42:50;;;;;;;2;1.9;;;;;;;;;;;;;
2021/08/01 22:45:17;;;;;;;2.5;2.2;;;;;;;;;;;;;
2021/08/01 22:47:42;;;;;;;2.9;2;;;;;;;;;;;;;
2021/08/01 22:50:09;;;;;;;3.7;2.3;;;;;;;;;;;;;
2021/08/01 22:52:34;;;;;;;3.9;2.3;;;;;;;;;;;;;
2021/08/01 22:54:59;;;;;;;3.2;2.2;;;;;;;;;;;;;
2021/08/01 22:57:24;;;;;;;3.4;2.3;;;;;;;;;;;;;
2021/08/01 22:59:50;;;;;;;2.6;2.2;;;;;;;;;;;;;
2021/08/01 23:02:25;;;;;;;3;2.2;;;;;;;;;;;;;
2021/08/01 23:04:56;;;;;;;2.9;1.9;;;;;;;;;;;;;
2021/08/01 23:07:22;;;;;;;3;2.1;;;;;;;;;;;;;
2021/08/01 23:09:47;;;;;;;2.2;2;;;;;;;;;;;;;
2021/08/01 23:12:12;;;;;;;2.8;1.9;;;;;;;;;;;;;
2021/08/01 23:14:39;;;;;;;3.9;1.9;;;;;;;;;;;;;
2021/08/01 23:17:03;;;;;;;3;2.1;;;;;;;;;;;;;
2021/08/01 23:19:28;;;;;;;3.2;1.9;;;;;;;;;;;;;
2021/08/01 23:21:53;;;;;;;4.2;2.3;;;;;;;;;;;;;
2021/08/01 23:24:18;;;;;;;4.7;2.5;;;;;;;;;;;;;
2021/08/01 23:26:44;;;;;;;2.3;1.9;;;;;;;;;;;;;
2021/08/01 23:31:50;;;;;;;2.1;1.9;;;;;;;;;;;;;
2021/08/01 23:34:17;;;;;;;3.8;2.1;;;;;;;;;;;;;
2021/08/01 23:36:42;;;;;;;1.9;1.8;;;;;;;;;;;;;
2021/08/01 23:39:08;;;;;;;2.2;2;;;;;;;;;;;;;
2021/08/01 23:41:33;;;;;;;2.3;1.9;;;;;;;;;;;;;
2021/08/01 23:44:00;;;;;;;3.5;2;;;;;;;;;;;;;
2021/08/01 23:46:25;;;;;;;2.4;2.1;;;;;;;;;;;;;
2021/08/01 23:48:51;;;;;;;3.8;2.2;;;;;;;;;;;;;
2021/08/01 23:51:16;;;;;;;3.1;2.1;;;;;;;;;;;;;
2021/08/01 23:53:42;;;;;;;2.7;2.2;;;;;;;;;;;;;
2021/08/01 23:56:07;;;;;;;3.1;2;;;;;;;;;;;;;
2021/08/01 23:58:33;;;;;;;2.7;1.7;;;;;;;;;;;;;
